Time;durP1;ratioP1;P1;durP2;ratioP2;P2;SDS_P1;SDS_P2;PMS_P1;PMS_P2;Temp;Humidity;BMP_temperature;BMP_pressure;BME280_temperature;BME280_humidity;BME280_pressure;Samples;Min_cycle;Max_cycle;Signal;HPM_P1;HPM_P2
2022/04/03 00:01:39;;;;;;;4.13;2.30;;;;;;;;;;5038181;28;20056;-51
2022/04/03 00:04:05;;;;;;;3.47;2.15;;;;;;;;;;5044092;28;20025;-52
2022/04/03 00:06:31;;;;;;;2.17;1.80;;;;;;;;;;5035991;28;20028;-52
2022/04/03 00:08:57;;;;;;;2.95;2.08;;;;;;;;;;5050265;28;20110;-51
2022/04/03 00:11:23;;;;;;;3.53;2.20;;;;;;;;;;5045565;28;20068;-49
2022/04/03 00:13:49;;;;;;;5.10;2.40;;;;;;;;;;5040970;28;20473;-50
2022/04/03 00:16:15;;;;;;;3.88;2.10;;;;;;;;;;5048860;28;20029;-50
2022/04/03 00:18:41;;;;;;;3.70;2.00;;;;;;;;;;5032690;28;21007;-51
2022/04/03 00:21:08;;;;;;;3.42;2.33;;;;;;;;;;5044083;28;20155;-49
2022/04/03 00:23:34;;;;;;;4.10;2.15;;;;;;;;;;5039583;28;20036;-52
2022/04/03 00:26:00;;;;;;;4.50;2.67;;;;;;;;;;5040411;28;20155;-52
2022/04/03 00:28:28;;;;;;;4.40;2.13;;;;;;;;;;5044335;28;20025;-49
2022/04/03 00:30:54;;;;;;;3.78;2.20;;;;;;;;;;5041480;28;20037;-52
2022/04/03 00:33:21;;;;;;;5.13;2.10;;;;;;;;;;5044622;28;20021;-52
2022/04/03 00:35:47;;;;;;;4.07;2.60;;;;;;;;;;5048796;28;20025;-50
2022/04/03 00:38:13;;;;;;;5.63;2.00;;;;;;;;;;5038058;28;20024;-48
2022/04/03 00:40:39;;;;;;;3.92;2.17;;;;;;;;;;5040946;28;20057;-50
2022/04/03 00:43:05;;;;;;;4.13;2.00;;;;;;;;;;5044365;28;20538;-51
2022/04/03 00:45:30;;;;;;;2.38;1.70;;;;;;;;;;5041482;28;20025;-50
2022/04/03 00:47:57;;;;;;;4.00;2.33;;;;;;;;;;5039841;28;20079;-52
2022/04/03 00:50:23;;;;;;;3.05;1.80;;;;;;;;;;5043194;28;20500;-51
2022/04/03 00:52:49;;;;;;;3.20;1.95;;;;;;;;;;5046060;28;20396;-48
2022/04/03 00:55:15;;;;;;;3.60;2.47;;;;;;;;;;5039269;28;20045;-49
2022/04/03 00:57:43;;;;;;;5.22;2.13;;;;;;;;;;5033067;28;20027;-52
2022/04/03 01:00:09;;;;;;;4.47;2.30;;;;;;;;;;5037086;28;20055;-53
2022/04/03 01:02:35;;;;;;;7.82;2.38;;;;;;;;;;5041036;28;20056;-49
2022/04/03 01:05:02;;;;;;;6.25;2.28;;;;;;;;;;5047192;28;20087;-48
2022/04/03 01:07:28;;;;;;;7.63;3.00;;;;;;;;;;5042484;28;20064;-48
2022/04/03 01:09:54;;;;;;;4.03;2.20;;;;;;;;;;5041532;28;20039;-49
2022/04/03 01:12:20;;;;;;;9.10;2.70;;;;;;;;;;5049322;28;20082;-49
2022/04/03 01:14:46;;;;;;;6.28;2.92;;;;;;;;;;5042947;28;20025;-48
2022/04/03 01:17:13;;;;;;;2.75;2.15;;;;;;;;;;5045565;28;20112;-50
2022/04/03 01:19:40;;;;;;;7.28;2.60;;;;;;;;;;5045756;28;20029;-51
2022/04/03 01:22:06;;;;;;;6.95;2.70;;;;;;;;;;5044085;28;20043;-50
2022/04/03 01:24:33;;;;;;;6.05;2.72;;;;;;;;;;5034232;28;20371;-48
2022/04/03 01:26:59;;;;;;;3.83;2.35;;;;;;;;;;5036392;28;20648;-49
2022/04/03 01:29:25;;;;;;;3.88;2.50;;;;;;;;;;5041618;28;20412;-49
2022/04/03 01:31:52;;;;;;;4.28;2.13;;;;;;;;;;5040703;28;20033;-49
2022/04/03 01:34:18;;;;;;;5.13;2.50;;;;;;;;;;5031724;28;20029;-48
2022/04/03 01:36:45;;;;;;;3.75;2.45;;;;;;;;;;5039095;28;20087;-49
2022/04/03 01:39:11;;;;;;;4.55;2.92;;;;;;;;;;5041650;28;20044;-51
2022/04/03 01:41:38;;;;;;;6.05;2.42;;;;;;;;;;5037125;28;20462;-48
2022/04/03 01:44:05;;;;;;;7.70;2.70;;;;;;;;;;5031720;28;20033;-51
2022/04/03 01:46:31;;;;;;;9.52;3.22;;;;;;;;;;5043335;28;20116;-48
2022/04/03 01:48:57;;;;;;;5.00;2.72;;;;;;;;;;5038751;28;20087;-48
2022/04/03 01:51:23;;;;;;;3.83;2.50;;;;;;;;;;5043748;28;20024;-50
2022/04/03 01:53:49;;;;;;;7.53;2.75;;;;;;;;;;5040510;28;20033;-48
2022/04/03 01:56:15;;;;;;;6.82;2.30;;;;;;;;;;5047747;28;20104;-50
2022/04/03 01:58:41;;;;;;;4.93;2.50;;;;;;;;;;5038964;28;20083;-52
2022/04/03 02:01:06;;;;;;;7.60;2.95;;;;;;;;;;5040154;28;20557;-49
2022/04/03 02:03:33;;;;;;;5.43;2.70;;;;;;;;;;5046963;28;20037;-50
2022/04/03 02:05:59;;;;;;;4.75;2.78;;;;;;;;;;5043713;28;20033;-50
2022/04/03 02:08:25;;;;;;;5.22;2.58;;;;;;;;;;5042684;28;20465;-52
2022/04/03 02:10:51;;;;;;;5.05;2.85;;;;;;;;;;5040756;28;20064;-49
2022/04/03 02:13:17;;;;;;;5.25;2.58;;;;;;;;;;5037908;28;21690;-50
2022/04/03 02:15:43;;;;;;;3.30;2.60;;;;;;;;;;5037623;28;20381;-49
2022/04/03 02:18:09;;;;;;;5.32;2.78;;;;;;;;;;5045982;28;20032;-48
2022/04/03 02:20:36;;;;;;;6.20;3.10;;;;;;;;;;5048203;28;20026;-49
2022/04/03 02:23:03;;;;;;;4.32;2.38;;;;;;;;;;5035724;28;20083;-49
2022/04/03 02:25:29;;;;;;;5.18;3.03;;;;;;;;;;5038418;28;20021;-49
2022/04/03 02:27:56;;;;;;;7.65;2.67;;;;;;;;;;5046476;28;20120;-52
2022/04/03 02:30:23;;;;;;;6.18;2.47;;;;;;;;;;5045507;28;20036;-50
2022/04/03 02:32:49;;;;;;;5.75;2.85;;;;;;;;;;5050460;28;20025;-49
2022/04/03 02:35:15;;;;;;;4.90;2.67;;;;;;;;;;5039748;28;20046;-51
2022/04/03 02:37:43;;;;;;;5.25;3.08;;;;;;;;;;5050607;28;20029;-51
2022/04/03 02:40:10;;;;;;;3.95;2.70;;;;;;;;;;5040941;28;20033;-48
2022/04/03 02:42:36;;;;;;;4.53;2.15;;;;;;;;;;5043425;28;20124;-53
2022/04/03 02:45:03;;;;;;;5.13;2.92;;;;;;;;;;5046446;28;20041;-48
2022/04/03 02:47:29;;;;;;;5.47;2.30;;;;;;;;;;5037726;28;20462;-49
2022/04/03 02:49:55;;;;;;;6.10;3.10;;;;;;;;;;5041862;28;20087;-48
2022/04/03 02:52:21;;;;;;;7.72;2.75;;;;;;;;;;5040857;28;20033;-49
2022/04/03 02:54:47;;;;;;;4.38;2.80;;;;;;;;;;5037384;28;20036;-51
2022/04/03 02:57:17;;;;;;;5.22;2.78;;;;;;;;;;5041522;28;20051;-50
2022/04/03 02:59:44;;;;;;;4.63;3.00;;;;;;;;;;5050002;28;20408;-50
2022/04/03 03:02:10;;;;;;;5.53;2.80;;;;;;;;;;5050013;28;20181;-50
2022/04/03 03:04:36;;;;;;;6.68;3.33;;;;;;;;;;5039740;28;20021;-50
2022/04/03 03:07:06;;;;;;;5.22;2.60;;;;;;;;;;5035950;28;20032;-52
2022/04/03 03:09:32;;;;;;;3.00;2.47;;;;;;;;;;5044298;28;20029;-49
2022/04/03 03:11:59;;;;;;;7.13;2.72;;;;;;;;;;5049262;28;20041;-49
2022/04/03 03:14:26;;;;;;;4.10;2.63;;;;;;;;;;5042574;28;20025;-50
2022/04/03 03:16:52;;;;;;;5.97;2.20;;;;;;;;;;5047051;28;20033;-50
2022/04/03 03:19:18;;;;;;;2.85;2.05;;;;;;;;;;5041804;28;20033;-48
2022/04/03 03:21:44;;;;;;;5.72;2.70;;;;;;;;;;5049773;28;20021;-49
2022/04/03 03:24:10;;;;;;;3.78;2.47;;;;;;;;;;5042059;28;20075;-48
2022/04/03 03:26:36;;;;;;;3.83;2.60;;;;;;;;;;5049825;28;20026;-49
2022/04/03 03:29:02;;;;;;;5.70;2.45;;;;;;;;;;5047330;28;20096;-48
2022/04/03 03:31:28;;;;;;;5.53;2.60;;;;;;;;;;5035963;28;20040;-48
2022/04/03 03:33:55;;;;;;;4.55;2.20;;;;;;;;;;5036138;28;20033;-49
2022/04/03 03:36:21;;;;;;;3.35;2.22;;;;;;;;;;5042158;28;20640;-49
2022/04/03 03:38:47;;;;;;;9.00;3.17;;;;;;;;;;5042515;28;20032;-49
2022/04/03 03:41:16;;;;;;;4.10;2.70;;;;;;;;;;5036889;28;20490;-50
2022/04/03 03:43:42;;;;;;;9.52;3.72;;;;;;;;;;5045667;28;20126;-49
2022/04/03 03:46:08;;;;;;;3.78;2.40;;;;;;;;;;5049339;28;20035;-51
2022/04/03 03:48:34;;;;;;;3.78;2.35;;;;;;;;;;5039942;28;20029;-48
2022/04/03 03:51:00;;;;;;;3.65;2.55;;;;;;;;;;5034272;28;20029;-52
2022/04/03 03:53:26;;;;;;;3.60;2.35;;;;;;;;;;5042922;28;20033;-49
2022/04/03 03:55:52;;;;;;;3.75;2.70;;;;;;;;;;5043399;28;20064;-49
2022/04/03 03:58:18;;;;;;;3.20;2.25;;;;;;;;;;5037473;28;20104;-49
2022/04/03 04:00:45;;;;;;;4.05;2.70;;;;;;;;;;5040025;28;20031;-54
2022/04/03 04:03:11;;;;;;;4.32;2.50;;;;;;;;;;5047301;28;20025;-51
2022/04/03 04:05:37;;;;;;;3.67;2.25;;;;;;;;;;5044099;28;20378;-49
2022/04/03 04:08:04;;;;;;;5.05;2.28;;;;;;;;;;5038718;28;20040;-51
2022/04/03 04:10:30;;;;;;;3.88;2.50;;;;;;;;;;5040544;28;20445;-50
2022/04/03 04:12:56;;;;;;;5.57;2.80;;;;;;;;;;5045065;28;20108;-52
2022/04/03 04:15:22;;;;;;;3.72;2.30;;;;;;;;;;5038175;28;20117;-52
2022/04/03 04:17:48;;;;;;;3.28;2.55;;;;;;;;;;5039902;28;20377;-49
2022/04/03 04:20:18;;;;;;;4.22;2.38;;;;;;;;;;5041981;28;20106;-48
2022/04/03 04:22:45;;;;;;;3.80;2.30;;;;;;;;;;5041697;28;20481;-51
2022/04/03 04:25:13;;;;;;;5.63;2.40;;;;;;;;;;5050230;28;20692;-51
2022/04/03 04:27:39;;;;;;;4.03;2.05;;;;;;;;;;5041105;28;20075;-52
2022/04/03 04:30:06;;;;;;;3.83;2.40;;;;;;;;;;5038142;28;20037;-49
2022/04/03 04:32:32;;;;;;;8.48;3.00;;;;;;;;;;5038954;28;20035;-50
2022/04/03 04:34:58;;;;;;;5.45;2.65;;;;;;;;;;5047576;28;20025;-53
2022/04/03 04:37:24;;;;;;;4.10;2.25;;;;;;;;;;5040437;28;20493;-52
2022/04/03 04:39:50;;;;;;;5.13;2.65;;;;;;;;;;5045277;28;20384;-49
2022/04/03 04:42:16;;;;;;;5.82;2.85;;;;;;;;;;5046237;28;20025;-48
2022/04/03 04:44:43;;;;;;;3.78;2.70;;;;;;;;;;5042487;28;20075;-48
2022/04/03 04:47:09;;;;;;;6.47;2.13;;;;;;;;;;5042832;28;20029;-48
2022/04/03 04:49:35;;;;;;;4.38;2.53;;;;;;;;;;5036094;28;20093;-51
2022/04/03 04:52:01;;;;;;;4.07;2.35;;;;;;;;;;5051097;28;20120;-52
2022/04/03 04:54:27;;;;;;;5.32;2.78;;;;;;;;;;5032382;28;20029;-52
2022/04/03 04:56:53;;;;;;;3.22;2.05;;;;;;;;;;5038360;28;20060;-52
2022/04/03 04:59:20;;;;;;;4.18;2.30;;;;;;;;;;5037151;28;20036;-48
2022/04/03 05:01:46;;;;;;;3.90;2.58;;;;;;;;;;5034662;28;20026;-48
2022/04/03 05:04:12;;;;;;;4.00;2.38;;;;;;;;;;5035292;28;20036;-50
2022/04/03 05:06:38;;;;;;;5.93;2.28;;;;;;;;;;5045031;28;20118;-49
2022/04/03 05:09:05;;;;;;;3.63;2.33;;;;;;;;;;5041809;28;20041;-51
2022/04/03 05:11:31;;;;;;;3.13;2.05;;;;;;;;;;5037341;28;20021;-49
2022/04/03 05:13:58;;;;;;;7.35;2.90;;;;;;;;;;5046854;28;20029;-48
2022/04/03 05:16:24;;;;;;;5.43;2.72;;;;;;;;;;5041399;28;20026;-49
2022/04/03 05:18:50;;;;;;;5.47;2.35;;;;;;;;;;5042807;28;20032;-48
2022/04/03 05:21:17;;;;;;;7.60;3.47;;;;;;;;;;5043070;28;20052;-49
2022/04/03 05:23:42;;;;;;;3.90;2.22;;;;;;;;;;5035923;28;20166;-50
2022/04/03 05:26:10;;;;;;;4.53;2.58;;;;;;;;;;5039201;28;20509;-51
2022/04/03 05:28:36;;;;;;;3.88;2.50;;;;;;;;;;5039510;28;20319;-48
2022/04/03 05:31:02;;;;;;;4.10;2.70;;;;;;;;;;5034741;28;20030;-49
2022/04/03 05:33:28;;;;;;;4.45;2.60;;;;;;;;;;5043418;28;20036;-48
2022/04/03 05:35:54;;;;;;;4.45;2.30;;;;;;;;;;5043264;28;20723;-48
2022/04/03 05:38:20;;;;;;;5.60;2.45;;;;;;;;;;5037362;28;20091;-48
2022/04/03 05:40:46;;;;;;;6.43;2.63;;;;;;;;;;5040564;28;20040;-49
2022/04/03 05:43:12;;;;;;;4.43;2.60;;;;;;;;;;5034371;28;20021;-48
2022/04/03 05:45:38;;;;;;;4.30;2.05;;;;;;;;;;5035733;28;20029;-50
2022/04/03 05:48:05;;;;;;;5.13;2.28;;;;;;;;;;5046967;28;20035;-51
2022/04/03 05:50:31;;;;;;;4.13;2.47;;;;;;;;;;5046286;28;20040;-51
2022/04/03 05:52:57;;;;;;;3.35;2.20;;;;;;;;;;5040116;28;20034;-48
2022/04/03 05:55:23;;;;;;;2.85;2.00;;;;;;;;;;5047835;28;20056;-48
2022/04/03 05:57:50;;;;;;;4.20;2.47;;;;;;;;;;5051860;28;20040;-52
2022/04/03 06:00:17;;;;;;;6.50;2.13;;;;;;;;;;5037506;28;20060;-51
2022/04/03 06:02:46;;;;;;;3.25;1.95;;;;;;;;;;5045633;28;20056;-51
2022/04/03 06:05:12;;;;;;;5.30;2.45;;;;;;;;;;5035859;28;20037;-53
2022/04/03 06:07:38;;;;;;;2.78;1.90;;;;;;;;;;5037748;28;20060;-51
2022/04/03 06:10:04;;;;;;;4.00;2.42;;;;;;;;;;5045901;28;20452;-49
2022/04/03 06:12:30;;;;;;;4.78;1.92;;;;;;;;;;5049584;28;20036;-50
2022/04/03 06:14:56;;;;;;;3.30;2.10;;;;;;;;;;5041138;28;20037;-49
2022/04/03 06:17:23;;;;;;;7.47;2.45;;;;;;;;;;5046925;28;20100;-47
2022/04/03 06:19:49;;;;;;;6.95;2.33;;;;;;;;;;5043091;28;20701;-48
2022/04/03 06:22:15;;;;;;;3.72;2.28;;;;;;;;;;5049589;28;20029;-54
2022/04/03 06:24:41;;;;;;;4.25;2.25;;;;;;;;;;5049673;28;20036;-49
2022/04/03 06:27:07;;;;;;;3.05;1.90;;;;;;;;;;5055087;28;20063;-48
2022/04/03 06:29:33;;;;;;;2.75;1.80;;;;;;;;;;5039771;28;20041;-50
2022/04/03 06:31:59;;;;;;;4.93;2.25;;;;;;;;;;5038192;28;20037;-47
2022/04/03 06:34:25;;;;;;;3.42;1.90;;;;;;;;;;5035496;28;20033;-52
2022/04/03 06:36:51;;;;;;;3.75;1.92;;;;;;;;;;5041794;28;20025;-48
2022/04/03 06:39:17;;;;;;;4.28;1.90;;;;;;;;;;5043755;28;20211;-50
2022/04/03 06:41:43;;;;;;;1.92;1.52;;;;;;;;;;5034787;28;20040;-48
2022/04/03 06:44:09;;;;;;;5.15;2.10;;;;;;;;;;5036335;28;20030;-51
2022/04/03 06:46:35;;;;;;;3.47;1.65;;;;;;;;;;5041529;28;20025;-52
2022/04/03 06:49:01;;;;;;;3.55;1.92;;;;;;;;;;5037882;28;20029;-48
2022/04/03 06:51:27;;;;;;;4.47;1.90;;;;;;;;;;5041067;28;20031;-48
2022/04/03 06:53:54;;;;;;;5.72;2.05;;;;;;;;;;5041078;28;20033;-48
2022/04/03 06:56:20;;;;;;;2.58;1.73;;;;;;;;;;5041564;28;20045;-49
2022/04/03 06:58:46;;;;;;;4.18;1.73;;;;;;;;;;5053317;28;20032;-50
2022/04/03 07:01:13;;;;;;;3.28;1.67;;;;;;;;;;5044417;28;20108;-50
2022/04/03 07:03:39;;;;;;;3.15;1.70;;;;;;;;;;5044402;28;20488;-48
2022/04/03 07:06:05;;;;;;;2.67;1.50;;;;;;;;;;5045895;28;20029;-52
2022/04/03 07:08:31;;;;;;;4.15;1.73;;;;;;;;;;5047441;28;20072;-52
2022/04/03 07:10:58;;;;;;;3.90;2.05;;;;;;;;;;5051245;28;20040;-49
2022/04/03 07:13:23;;;;;;;3.60;1.90;;;;;;;;;;5048784;28;20022;-51
2022/04/03 07:15:50;;;;;;;2.17;1.60;;;;;;;;;;5045163;28;20021;-51
2022/04/03 07:18:16;;;;;;;3.25;1.63;;;;;;;;;;5047169;28;20083;-49
2022/04/03 07:20:43;;;;;;;2.95;1.60;;;;;;;;;;5049225;28;20053;-48
2022/04/03 07:23:08;;;;;;;4.00;1.92;;;;;;;;;;5041828;28;20406;-49
2022/04/03 07:25:34;;;;;;;3.88;1.70;;;;;;;;;;5048233;28;20048;-48
2022/04/03 07:28:00;;;;;;;4.95;1.55;;;;;;;;;;5044222;28;20425;-50
2022/04/03 07:30:26;;;;;;;3.05;1.63;;;;;;;;;;5047906;28;20522;-52
2022/04/03 07:32:52;;;;;;;5.75;1.90;;;;;;;;;;5049035;28;20116;-53
2022/04/03 07:35:18;;;;;;;6.43;1.85;;;;;;;;;;5046781;28;20029;-50
2022/04/03 07:37:44;;;;;;;2.25;1.50;;;;;;;;;;5039742;28;20527;-49
2022/04/03 07:40:11;;;;;;;1.98;1.27;;;;;;;;;;5046313;28;20021;-53
2022/04/03 07:42:39;;;;;;;4.45;1.75;;;;;;;;;;5039694;28;20047;-50
2022/04/03 07:45:05;;;;;;;3.25;1.67;;;;;;;;;;5042886;28;20090;-52
2022/04/03 07:47:31;;;;;;;3.95;2.03;;;;;;;;;;5037652;28;20033;-52
2022/04/03 07:49:58;;;;;;;2.10;1.55;;;;;;;;;;5046526;28;20100;-53
2022/04/03 07:52:25;;;;;;;4.88;2.17;;;;;;;;;;5041772;28;20036;-50
2022/04/03 07:54:51;;;;;;;4.20;1.48;;;;;;;;;;5036758;28;20038;-49
2022/04/03 07:57:19;;;;;;;4.57;2.10;;;;;;;;;;5041337;28;20024;-51
2022/04/03 07:59:45;;;;;;;3.88;1.27;;;;;;;;;;5048380;28;20037;-47
2022/04/03 08:02:11;;;;;;;2.78;1.42;;;;;;;;;;5051580;28;20036;-52
2022/04/03 08:04:36;;;;;;;4.07;2.30;;;;;;;;;;5042424;28;20021;-51
2022/04/03 08:07:03;;;;;;;5.25;1.80;;;;;;;;;;5047073;28;20036;-52
2022/04/03 08:09:29;;;;;;;3.08;1.65;;;;;;;;;;5044138;28;20033;-52
2022/04/03 08:11:55;;;;;;;2.28;1.25;;;;;;;;;;5040178;28;20026;-50
2022/04/03 08:14:22;;;;;;;3.25;2.00;;;;;;;;;;5036041;28;20148;-49
2022/04/03 08:16:48;;;;;;;4.15;1.73;;;;;;;;;;5042724;28;20036;-51
2022/04/03 08:19:14;;;;;;;2.65;1.50;;;;;;;;;;5045499;28;20457;-49
2022/04/03 08:21:40;;;;;;;2.35;1.45;;;;;;;;;;5039860;28;20062;-49
2022/04/03 08:24:06;;;;;;;5.75;1.50;;;;;;;;;;5036808;28;20025;-48
2022/04/03 08:26:32;;;;;;;2.80;1.38;;;;;;;;;;5037887;28;20497;-49
2022/04/03 08:28:58;;;;;;;1.92;1.15;;;;;;;;;;5042301;28;20068;-48
2022/04/03 08:31:24;;;;;;;2.67;1.40;;;;;;;;;;5044129;28;20057;-49
2022/04/03 08:33:51;;;;;;;3.47;1.48;;;;;;;;;;5041761;28;20060;-48
2022/04/03 08:36:17;;;;;;;4.10;1.75;;;;;;;;;;5034686;28;20377;-49
2022/04/03 08:38:43;;;;;;;2.45;1.50;;;;;;;;;;5035638;28;20035;-50
2022/04/03 08:41:10;;;;;;;3.33;1.45;;;;;;;;;;5041668;28;20111;-50
2022/04/03 08:43:37;;;;;;;4.45;1.70;;;;;;;;;;5038736;28;20116;-51
2022/04/03 08:46:06;;;;;;;2.75;1.50;;;;;;;;;;5042291;28;20036;-50
2022/04/03 08:48:32;;;;;;;4.57;1.30;;;;;;;;;;5034525;28;20022;-52
2022/04/03 08:51:01;;;;;;;2.72;1.30;;;;;;;;;;5037899;28;20029;-49
2022/04/03 08:53:30;;;;;;;2.45;1.40;;;;;;;;;;5040871;28;20029;-49
2022/04/03 08:55:56;;;;;;;1.77;1.08;;;;;;;;;;5048034;28;20049;-51
2022/04/03 08:58:22;;;;;;;1.83;1.17;;;;;;;;;;5047544;28;20036;-50
2022/04/03 09:00:48;;;;;;;1.58;1.05;;;;;;;;;;5039849;28;20022;-52
2022/04/03 09:03:14;;;;;;;2.55;1.30;;;;;;;;;;5045770;28;20024;-50
2022/04/03 09:05:43;;;;;;;2.28;1.42;;;;;;;;;;5040726;28;20113;-51
2022/04/03 09:08:10;;;;;;;2.50;1.10;;;;;;;;;;5034473;28;20048;-53
2022/04/03 09:10:36;;;;;;;2.05;1.20;;;;;;;;;;5035586;28;20030;-50
2022/04/03 09:13:02;;;;;;;1.45;1.00;;;;;;;;;;5042018;28;20038;-50
2022/04/03 09:15:29;;;;;;;2.05;1.10;;;;;;;;;;5042954;28;20029;-54
2022/04/03 09:17:56;;;;;;;2.08;1.02;;;;;;;;;;5045680;28;20055;-51
2022/04/03 09:20:23;;;;;;;3.45;1.30;;;;;;;;;;5050600;28;20103;-50
2022/04/03 09:22:50;;;;;;;2.63;0.95;;;;;;;;;;5038010;28;20405;-49
2022/04/03 09:25:19;;;;;;;2.90;1.27;;;;;;;;;;5035889;28;20064;-54
2022/04/03 09:27:46;;;;;;;2.92;1.10;;;;;;;;;;5033371;28;20033;-49
2022/04/03 09:30:12;;;;;;;3.33;1.25;;;;;;;;;;5045537;28;20127;-50
2022/04/03 09:32:52;;;;;;;2.03;1.20;;;;;;;;;;5038147;28;20496;-50
2022/04/03 09:35:19;;;;;;;2.95;1.23;;;;;;;;;;5042127;28;20429;-52
2022/04/03 09:38:04;;;;;;;3.20;1.15;;;;;;;;;;5041925;28;20033;-51
2022/04/03 09:40:30;;;;;;;1.50;0.80;;;;;;;;;;5043686;28;20033;-53
2022/04/03 09:43:12;;;;;;;1.55;0.70;;;;;;;;;;5036090;28;20040;-53
2022/04/03 09:45:47;;;;;;;1.75;1.05;;;;;;;;;;5037295;28;20062;-51
2022/04/03 09:48:20;;;;;;;2.35;1.10;;;;;;;;;;5042080;28;20369;-52
2022/04/03 09:50:55;;;;;;;1.88;1.02;;;;;;;;;;5051513;28;20032;-51
2022/04/03 09:53:21;;;;;;;4.63;1.25;;;;;;;;;;5046740;28;20025;-52
2022/04/03 09:55:47;;;;;;;2.28;1.23;;;;;;;;;;5031652;28;20049;-50
2022/04/03 09:58:15;;;;;;;2.05;1.17;;;;;;;;;;5042751;28;20040;-49
2022/04/03 10:00:41;;;;;;;1.60;0.90;;;;;;;;;;5047790;28;20044;-49
2022/04/03 10:03:09;;;;;;;2.53;0.98;;;;;;;;;;5035719;28;20029;-53
2022/04/03 10:05:36;;;;;;;2.28;0.93;;;;;;;;;;5042100;28;20418;-50
2022/04/03 10:08:03;;;;;;;2.70;1.05;;;;;;;;;;5041908;28;20047;-53
2022/04/03 10:10:30;;;;;;;1.40;0.85;;;;;;;;;;5044360;28;20043;-49
2022/04/03 10:12:56;;;;;;;2.28;1.08;;;;;;;;;;5037006;28;20043;-52
2022/04/03 10:15:23;;;;;;;2.40;1.40;;;;;;;;;;5037102;28;20104;-49
2022/04/03 10:17:49;;;;;;;1.83;1.25;;;;;;;;;;5036334;28;20358;-53
2022/04/03 10:20:15;;;;;;;1.90;1.10;;;;;;;;;;5039294;28;20033;-49
2022/04/03 10:22:42;;;;;;;2.13;1.20;;;;;;;;;;5042730;28;20033;-49
2022/04/03 10:25:14;;;;;;;2.30;1.30;;;;;;;;;;5042310;28;20029;-53
2022/04/03 10:27:40;;;;;;;2.25;1.00;;;;;;;;;;5036672;28;20445;-54
2022/04/03 10:30:08;;;;;;;2.10;0.98;;;;;;;;;;5034893;28;20029;-52
2022/04/03 10:32:35;;;;;;;2.08;0.93;;;;;;;;;;5044667;28;20493;-52
2022/04/03 10:35:05;;;;;;;2.00;1.00;;;;;;;;;;5037799;28;20082;-49
2022/04/03 10:37:40;;;;;;;1.92;1.10;;;;;;;;;;5042233;28;20525;-51
2022/04/03 10:40:16;;;;;;;1.80;0.98;;;;;;;;;;5041142;28;20109;-53
2022/04/03 10:42:58;;;;;;;2.47;1.20;;;;;;;;;;5039014;28;20112;-51
2022/04/03 10:45:28;;;;;;;1.35;0.90;;;;;;;;;;5042383;28;20039;-48
2022/04/03 10:48:12;;;;;;;2.08;0.93;;;;;;;;;;5035194;28;20037;-52
2022/04/03 10:50:57;;;;;;;3.08;1.02;;;;;;;;;;5045206;28;20480;-49
2022/04/03 10:53:24;;;;;;;1.88;0.90;;;;;;;;;;5044342;28;20044;-53
2022/04/03 10:55:54;;;;;;;0.85;0.65;;;;;;;;;;5048127;28;20042;-49
2022/04/03 10:58:20;;;;;;;2.95;1.20;;;;;;;;;;5040391;28;20017;-50
2022/04/03 11:00:46;;;;;;;1.30;0.85;;;;;;;;;;5037413;28;20435;-51
2022/04/03 11:03:15;;;;;;;0.82;0.70;;;;;;;;;;5044622;28;20603;-52
2022/04/03 11:05:48;;;;;;;2.47;1.08;;;;;;;;;;5041672;28;20029;-51
2022/04/03 11:08:14;;;;;;;3.22;0.90;;;;;;;;;;5040300;28;20022;-49
2022/04/03 11:10:54;;;;;;;2.85;1.40;;;;;;;;;;5052296;28;20035;-49
2022/04/03 11:13:35;;;;;;;1.55;0.93;;;;;;;;;;5047761;28;20361;-49
2022/04/03 11:16:11;;;;;;;3.00;1.27;;;;;;;;;;5044536;28;20040;-49
2022/04/03 11:18:39;;;;;;;1.50;1.10;;;;;;;;;;5052585;28;20033;-51
2022/04/03 11:21:09;;;;;;;3.05;1.45;;;;;;;;;;5047119;28;20389;-48
2022/04/03 11:23:36;;;;;;;1.90;1.40;;;;;;;;;;5047286;28;20032;-48
2022/04/03 11:26:02;;;;;;;1.65;1.20;;;;;;;;;;5044105;28;20057;-47
2022/04/03 11:28:29;;;;;;;1.95;1.17;;;;;;;;;;5041272;28;20036;-48
2022/04/03 11:30:55;;;;;;;2.83;1.27;;;;;;;;;;5046437;28;20512;-47
2022/04/03 11:33:22;;;;;;;1.42;1.08;;;;;;;;;;5040302;28;20057;-49
2022/04/03 11:35:48;;;;;;;2.67;1.83;;;;;;;;;;5040551;28;20139;-49
2022/04/03 11:38:15;;;;;;;1.73;0.90;;;;;;;;;;5049349;28;20033;-50
2022/04/03 11:40:46;;;;;;;2.10;1.25;;;;;;;;;;5057191;28;20029;-48
2022/04/03 11:43:17;;;;;;;2.58;1.02;;;;;;;;;;5038290;28;20029;-49
2022/04/03 11:45:54;;;;;;;3.30;0.90;;;;;;;;;;5043310;28;20071;-49
2022/04/03 11:48:22;;;;;;;5.82;1.02;;;;;;;;;;5033655;28;20060;-48
2022/04/03 11:50:49;;;;;;;3.55;1.40;;;;;;;;;;5038806;28;20020;-50
2022/04/03 11:53:16;;;;;;;1.90;1.00;;;;;;;;;;5053389;28;20360;-47
2022/04/03 11:55:42;;;;;;;3.90;1.27;;;;;;;;;;5053225;28;20049;-50
2022/04/03 11:58:08;;;;;;;1.90;1.00;;;;;;;;;;5053592;28;20155;-48
2022/04/03 12:00:34;;;;;;;1.60;1.15;;;;;;;;;;5053565;28;20048;-49
2022/04/03 12:03:00;;;;;;;1.65;0.80;;;;;;;;;;5037389;28;20036;-52
2022/04/03 12:05:27;;;;;;;3.35;1.35;;;;;;;;;;5038682;28;20053;-49
2022/04/03 12:07:53;;;;;;;3.15;1.25;;;;;;;;;;5040565;28;20029;-50
2022/04/03 12:10:26;;;;;;;1.67;0.80;;;;;;;;;;5046674;28;20048;-47
2022/04/03 12:12:54;;;;;;;3.03;1.20;;;;;;;;;;5038918;28;20124;-51
2022/04/03 12:15:20;;;;;;;2.88;0.95;;;;;;;;;;5048375;28;20048;-49
2022/04/03 12:17:46;;;;;;;1.83;1.00;;;;;;;;;;5042051;28;20025;-48
2022/04/03 12:20:12;;;;;;;1.75;0.85;;;;;;;;;;5036320;28;20061;-54
2022/04/03 12:22:41;;;;;;;1.20;0.82;;;;;;;;;;5037412;28;20481;-54
2022/04/03 12:25:08;;;;;;;1.88;0.90;;;;;;;;;;5037760;28;20040;-49
2022/04/03 12:27:37;;;;;;;1.30;0.70;;;;;;;;;;5044772;28;20454;-53
2022/04/03 12:30:04;;;;;;;1.63;1.00;;;;;;;;;;5042907;28;20029;-50
2022/04/03 12:32:35;;;;;;;2.72;0.95;;;;;;;;;;5039352;28;20064;-50
2022/04/03 12:35:01;;;;;;;2.53;0.75;;;;;;;;;;5045151;28;20043;-48
2022/04/03 12:37:32;;;;;;;2.50;1.10;;;;;;;;;;5037485;28;20041;-49
2022/04/03 12:39:58;;;;;;;0.98;0.73;;;;;;;;;;5034259;28;20040;-53
2022/04/03 12:42:44;;;;;;;1.27;0.80;;;;;;;;;;5038322;28;20029;-53
2022/04/03 12:45:15;;;;;;;1.80;0.80;;;;;;;;;;5045639;28;20104;-52
2022/04/03 12:47:45;;;;;;;1.38;0.90;;;;;;;;;;5039995;28;20505;-52
2022/04/03 12:50:14;;;;;;;3.58;0.90;;;;;;;;;;5041892;28;20028;-54
2022/04/03 12:52:53;;;;;;;1.73;0.75;;;;;;;;;;5037533;28;20053;-53
2022/04/03 12:55:22;;;;;;;3.90;1.10;;;;;;;;;;5040023;28;20055;-51
2022/04/03 13:00:46;;;;;;;1.92;0.80;;;;;;;;;;5041753;28;20064;-53
2022/04/03 13:03:22;;;;;;;3.30;0.75;;;;;;;;;;5042186;28;20033;-54
2022/04/03 13:05:48;;;;;;;0.95;0.55;;;;;;;;;;5039747;28;20056;-50
2022/04/03 13:08:14;;;;;;;4.68;1.00;;;;;;;;;;5037618;28;20025;-52
2022/04/03 13:10:54;;;;;;;2.05;0.73;;;;;;;;;;5039813;28;20094;-51
2022/04/03 13:13:25;;;;;;;1.05;0.50;;;;;;;;;;5049096;28;20067;-51
2022/04/03 13:15:51;;;;;;;1.65;0.73;;;;;;;;;;5045071;28;20087;-52
2022/04/03 13:18:18;;;;;;;1.75;0.57;;;;;;;;;;5033267;28;20712;-53
2022/04/03 13:20:47;;;;;;;1.48;0.57;;;;;;;;;;5049696;28;20056;-52
2022/04/03 13:23:13;;;;;;;1.10;0.93;;;;;;;;;;5041365;28;20549;-51
2022/04/03 13:25:39;;;;;;;1.63;0.75;;;;;;;;;;5048996;28;20051;-51
2022/04/03 13:28:05;;;;;;;2.30;0.98;;;;;;;;;;5045860;28;20041;-53
2022/04/03 13:30:34;;;;;;;1.05;0.63;;;;;;;;;;5043951;28;20100;-53
2022/04/03 13:33:00;;;;;;;2.88;1.33;;;;;;;;;;5045654;28;20029;-53
2022/04/03 13:35:26;;;;;;;3.13;0.90;;;;;;;;;;5050814;28;20063;-50
2022/04/03 13:37:53;;;;;;;1.88;0.93;;;;;;;;;;5043906;28;20358;-49
2022/04/03 13:40:19;;;;;;;1.17;0.73;;;;;;;;;;5044653;28;20045;-53
2022/04/03 13:42:45;;;;;;;1.77;0.70;;;;;;;;;;5031585;28;20029;-54
2022/04/03 13:45:11;;;;;;;1.58;0.75;;;;;;;;;;5042576;28;20104;-54
2022/04/03 13:47:37;;;;;;;0.98;0.60;;;;;;;;;;5050862;28;20033;-51
2022/04/03 13:50:03;;;;;;;3.05;0.75;;;;;;;;;;5041142;28;20461;-53
2022/04/03 13:52:29;;;;;;;2.22;0.70;;;;;;;;;;5049177;28;20047;-54
2022/04/03 13:54:57;;;;;;;2.50;0.60;;;;;;;;;;5049509;28;20489;-52
2022/04/03 13:57:23;;;;;;;0.95;0.63;;;;;;;;;;5050841;28;20033;-52
2022/04/03 13:59:50;;;;;;;1.73;0.73;;;;;;;;;;5051291;28;20025;-52
2022/04/03 14:02:17;;;;;;;1.05;0.52;;;;;;;;;;5047889;28;20033;-51
2022/04/03 14:04:43;;;;;;;2.45;0.70;;;;;;;;;;5033099;28;20021;-53
2022/04/03 14:07:09;;;;;;;2.10;0.60;;;;;;;;;;5049840;28;20032;-51
2022/04/03 14:09:35;;;;;;;1.38;0.60;;;;;;;;;;5051416;28;20029;-53
2022/04/03 14:12:01;;;;;;;2.58;0.80;;;;;;;;;;5050560;28;20120;-51
2022/04/03 14:14:27;;;;;;;1.90;0.77;;;;;;;;;;5052942;28;20024;-49
2022/04/03 14:16:53;;;;;;;1.13;0.82;;;;;;;;;;5048174;28;20116;-50
2022/04/03 14:19:20;;;;;;;1.70;0.60;;;;;;;;;;5036918;28;20030;-53
2022/04/03 14:21:45;;;;;;;2.00;1.30;;;;;;;;;;5044504;28;20025;-53
2022/04/03 14:24:11;;;;;;;4.30;1.00;;;;;;;;;;5040365;28;20037;-53
2022/04/03 14:26:38;;;;;;;2.53;0.95;;;;;;;;;;5051456;28;20032;-55
2022/04/03 14:29:04;;;;;;;0.95;0.60;;;;;;;;;;5050865;28;20033;-54
2022/04/03 14:31:30;;;;;;;1.30;0.70;;;;;;;;;;5050104;28;20056;-54
2022/04/03 14:33:56;;;;;;;1.50;0.65;;;;;;;;;;5046442;28;20469;-54
2022/04/03 14:36:22;;;;;;;1.42;0.88;;;;;;;;;;5041150;28;20032;-55
2022/04/03 14:38:48;;;;;;;1.10;0.70;;;;;;;;;;5050845;28;20033;-55
2022/04/03 14:41:14;;;;;;;3.85;1.42;;;;;;;;;;5044350;28;20108;-55
2022/04/03 14:43:45;;;;;;;2.42;1.23;;;;;;;;;;5048745;28;20092;-53
2022/04/03 14:46:11;;;;;;;1.75;0.95;;;;;;;;;;5048377;28;20026;-53